Time;durP1;ratioP1;P1;durP2;ratioP2;P2;SDS_P1;SDS_P2;PMS_P1;PMS_P2;Temp;Humidity;BMP_temperature;BMP_pressure;BME280_temperature;BME280_humidity;BME280_pressure;Samples;Min_cycle;Max_cycle;Signal;HPM_P1;HPM_P2
2022/04/11 00:00:43;;;;;;;50.83;25.85;;;;;;;;;;6134582;29;20104;-87
2022/04/11 00:03:43;;;;;;;49.05;25.77;;;;;;;;;;6152052;29;20557;-87
2022/04/11 00:06:44;;;;;;;48.53;23.67;;;;;;;;;;6134465;29;20031;-87
2022/04/11 00:09:44;;;;;;;54.13;26.65;;;;;;;;;;6150500;29;20030;-86
2022/04/11 00:12:44;;;;;;;46.77;25.47;;;;;;;;;;6151487;29;20098;-87
2022/04/11 00:15:45;;;;;;;41.88;21.20;;;;;;;;;;6127275;29;20270;-87
2022/04/11 00:18:46;;;;;;;32.00;14.47;;;;;;;;;;6127667;29;20044;-87
2022/04/11 00:21:46;;;;;;;39.05;18.80;;;;;;;;;;6127509;29;20394;-87
2022/04/11 00:24:46;;;;;;;39.70;20.93;;;;;;;;;;6150183;29;20031;-86
2022/04/11 00:27:46;;;;;;;33.85;17.92;;;;;;;;;;6129146;29;20283;-87
2022/04/11 00:30:47;;;;;;;31.73;15.35;;;;;;;;;;6139411;29;20023;-86
2022/04/11 00:33:47;;;;;;;26.17;14.23;;;;;;;;;;6109967;29;20038;-86
2022/04/11 00:36:47;;;;;;;26.13;14.05;;;;;;;;;;6125735;29;20050;-87
2022/04/11 00:39:47;;;;;;;22.27;11.67;;;;;;;;;;6133588;29;20020;-86
2022/04/11 00:42:49;;;;;;;30.48;14.55;;;;;;;;;;6133026;29;20302;-86
2022/04/11 00:45:49;;;;;;;23.60;14.27;;;;;;;;;;6133479;28;20027;-86
2022/04/11 00:48:50;;;;;;;13.93;9.15;;;;;;;;;;6133188;29;20459;-86
2022/04/11 00:51:50;;;;;;;25.77;13.13;;;;;;;;;;6133475;29;20360;-86
2022/04/11 00:54:50;;;;;;;23.38;11.77;;;;;;;;;;6133298;29;20110;-86
2022/04/11 00:57:51;;;;;;;17.95;8.15;;;;;;;;;;6133425;29;20024;-86
2022/04/11 01:00:51;;;;;;;17.15;10.25;;;;;;;;;;6134171;29;20037;-86
2022/04/11 01:03:51;;;;;;;21.75;11.35;;;;;;;;;;6150130;29;20131;-87
2022/04/11 01:06:55;;;;;;;21.40;10.02;;;;;;;;;;6133311;29;20050;-87
2022/04/11 01:09:55;;;;;;;22.48;9.82;;;;;;;;;;6133494;29;20078;-87
2022/04/11 01:12:56;;;;;;;21.98;12.43;;;;;;;;;;6132881;29;20023;-87
2022/04/11 01:15:56;;;;;;;24.10;11.02;;;;;;;;;;6133511;29;20030;-87
2022/04/11 01:18:57;;;;;;;12.18;6.40;;;;;;;;;;6132646;29;20483;-86
2022/04/11 01:21:57;;;;;;;20.33;10.23;;;;;;;;;;6150141;29;20027;-87
2022/04/11 01:24:57;;;;;;;23.97;8.53;;;;;;;;;;6150041;29;20035;-86
2022/04/11 01:28:00;;;;;;;19.52;10.02;;;;;;;;;;6143604;29;20319;-87
2022/04/11 01:31:00;;;;;;;18.98;8.48;;;;;;;;;;6126617;29;20102;-86
2022/04/11 01:34:00;;;;;;;19.90;8.63;;;;;;;;;;6127313;29;20356;-87
2022/04/11 01:37:00;;;;;;;18.67;8.57;;;;;;;;;;6131994;29;20047;-86
2022/04/11 01:40:01;;;;;;;25.30;9.47;;;;;;;;;;6133654;29;20015;-86
2022/04/11 01:43:01;;;;;;;13.63;6.53;;;;;;;;;;6158504;28;20285;-87
2022/04/11 01:46:01;;;;;;;15.88;8.60;;;;;;;;;;6138360;29;20078;-87
2022/04/11 01:49:01;;;;;;;15.88;8.63;;;;;;;;;;6133510;29;20030;-86
2022/04/11 01:52:02;;;;;;;19.83;9.27;;;;;;;;;;6133817;29;20019;-86
2022/04/11 01:55:03;;;;;;;15.48;7.93;;;;;;;;;;6133427;29;20019;-87
2022/04/11 01:58:04;;;;;;;15.80;8.20;;;;;;;;;;6134647;29;20441;-86
2022/04/11 02:01:04;;;;;;;21.80;8.23;;;;;;;;;;6133949;29;20039;-87
2022/04/11 02:04:04;;;;;;;17.92;9.18;;;;;;;;;;6151799;29;20109;-87
2022/04/11 02:07:06;;;;;;;17.83;8.63;;;;;;;;;;6134762;29;20039;-86
2022/04/11 02:10:06;;;;;;;19.73;9.20;;;;;;;;;;6126619;29;20287;-86
2022/04/11 02:13:07;;;;;;;17.13;8.73;;;;;;;;;;6134296;29;20020;-87
2022/04/11 02:16:07;;;;;;;19.15;9.65;;;;;;;;;;6111640;29;20483;-86
2022/04/11 02:19:07;;;;;;;14.63;8.93;;;;;;;;;;6110486;29;20471;-86
2022/04/11 02:22:07;;;;;;;19.75;9.95;;;;;;;;;;6111092;29;20097;-87
2022/04/11 02:25:08;;;;;;;18.23;8.50;;;;;;;;;;6137550;29;20066;-87
2022/04/11 02:28:08;;;;;;;17.65;9.38;;;;;;;;;;6134993;29;20255;-87
2022/04/11 02:31:08;;;;;;;20.73;9.70;;;;;;;;;;6134680;29;20019;-87
2022/04/11 02:34:08;;;;;;;18.33;9.55;;;;;;;;;;6134738;28;20330;-87
2022/04/11 02:37:08;;;;;;;18.63;9.45;;;;;;;;;;6150879;29;20054;-86
2022/04/11 02:40:10;;;;;;;18.15;9.88;;;;;;;;;;6127912;29;20044;-86
2022/04/11 02:43:10;;;;;;;19.52;10.00;;;;;;;;;;6148601;28;20167;-87
2022/04/11 02:46:10;;;;;;;20.60;9.13;;;;;;;;;;6152131;29;20442;-87
2022/04/11 02:49:11;;;;;;;23.10;11.23;;;;;;;;;;6133707;29;20031;-86
2022/04/11 02:52:11;;;;;;;28.70;10.70;;;;;;;;;;6133430;29;20627;-86
2022/04/11 02:55:11;;;;;;;14.93;7.72;;;;;;;;;;6133567;29;20106;-88
2022/04/11 02:58:11;;;;;;;24.10;9.70;;;;;;;;;;6133244;29;20023;-87
2022/04/11 03:01:12;;;;;;;17.23;6.88;;;;;;;;;;6132205;29;20027;-87
2022/04/11 03:04:12;;;;;;;22.00;10.23;;;;;;;;;;6132309;29;20023;-87
2022/04/11 03:07:12;;;;;;;25.30;10.17;;;;;;;;;;6129647;29;20047;-87
2022/04/11 03:10:13;;;;;;;22.63;10.23;;;;;;;;;;6131824;29;20297;-87
2022/04/11 03:13:13;;;;;;;15.95;7.68;;;;;;;;;;6131947;29;20114;-87
2022/04/11 03:16:13;;;;;;;28.77;12.40;;;;;;;;;;6132734;29;20015;-87
2022/04/11 03:19:14;;;;;;;18.55;9.68;;;;;;;;;;6149608;29;20027;-86
2022/04/11 03:22:14;;;;;;;23.23;10.00;;;;;;;;;;6132992;29;20074;-86
2022/04/11 03:25:14;;;;;;;17.83;9.43;;;;;;;;;;6133007;29;20054;-87
2022/04/11 03:28:14;;;;;;;20.67;10.13;;;;;;;;;;6131872;29;20023;-87
2022/04/11 03:31:15;;;;;;;20.33;10.07;;;;;;;;;;6132759;29;20417;-87
2022/04/11 03:34:15;;;;;;;21.00;9.88;;;;;;;;;;6147885;28;20437;-87
2022/04/11 03:37:15;;;;;;;21.00;8.63;;;;;;;;;;6131764;29;20050;-87
2022/04/11 03:40:16;;;;;;;16.00;8.73;;;;;;;;;;6123741;29;20037;-87
2022/04/11 03:43:16;;;;;;;17.48;8.18;;;;;;;;;;6113657;29;20094;-87
2022/04/11 03:46:16;;;;;;;13.70;7.50;;;;;;;;;;6131987;29;20031;-87
2022/04/11 03:49:16;;;;;;;19.08;8.27;;;;;;;;;;6148234;29;20028;-87
2022/04/11 03:52:17;;;;;;;17.08;9.10;;;;;;;;;;6148151;29;20059;-87
2022/04/11 03:55:17;;;;;;;19.97;10.40;;;;;;;;;;6132847;29;20114;-87
2022/04/11 03:58:17;;;;;;;26.23;10.07;;;;;;;;;;6152677;29;20267;-87
2022/04/11 04:01:17;;;;;;;20.42;9.88;;;;;;;;;;6135416;29;20042;-87
2022/04/11 04:04:18;;;;;;;18.27;10.18;;;;;;;;;;6152564;29;20095;-87
2022/04/11 04:07:18;;;;;;;14.80;8.50;;;;;;;;;;6150221;28;20027;-87
2022/04/11 04:10:18;;;;;;;25.17;12.98;;;;;;;;;;6151049;29;20046;-86
2022/04/11 04:13:18;;;;;;;25.13;12.43;;;;;;;;;;6151748;29;20031;-87
2022/04/11 04:16:19;;;;;;;30.10;12.80;;;;;;;;;;6151843;29;20024;-87
2022/04/11 04:19:19;;;;;;;21.35;11.10;;;;;;;;;;6151869;29;20035;-86
2022/04/11 04:22:19;;;;;;;26.98;11.05;;;;;;;;;;6134102;29;20066;-87
2022/04/11 04:25:19;;;;;;;18.97;11.33;;;;;;;;;;6133695;29;20031;-87
2022/04/11 04:28:20;;;;;;;18.05;10.43;;;;;;;;;;6124718;29;20266;-87
2022/04/11 04:31:20;;;;;;;16.02;10.25;;;;;;;;;;6128003;29;20016;-87
2022/04/11 04:34:21;;;;;;;17.30;7.88;;;;;;;;;;6127428;29;20103;-87
2022/04/11 04:37:21;;;;;;;22.58;10.07;;;;;;;;;;6110300;29;20118;-87
2022/04/11 04:40:21;;;;;;;20.00;10.85;;;;;;;;;;6115730;29;20484;-87
2022/04/11 04:43:21;;;;;;;31.30;12.65;;;;;;;;;;6133432;29;20124;-87
2022/04/11 04:46:22;;;;;;;25.05;12.02;;;;;;;;;;6134159;29;20027;-87
2022/04/11 04:49:22;;;;;;;20.25;10.60;;;;;;;;;;6151245;29;20054;-87
2022/04/11 04:52:22;;;;;;;23.15;10.05;;;;;;;;;;6150278;28;20031;-87
2022/04/11 04:55:23;;;;;;;16.50;9.25;;;;;;;;;;6144515;28;20533;-87
2022/04/11 04:58:24;;;;;;;17.13;8.23;;;;;;;;;;6163213;28;20074;-87
2022/04/11 05:01:24;;;;;;;13.63;9.00;;;;;;;;;;6133285;29;20027;-87
2022/04/11 05:04:24;;;;;;;17.53;8.67;;;;;;;;;;6132966;29;20648;-87
2022/04/11 05:07:24;;;;;;;15.82;8.68;;;;;;;;;;6132176;29;20695;-87
2022/04/11 05:10:25;;;;;;;20.67;10.27;;;;;;;;;;6150696;28;20042;-87
2022/04/11 05:13:25;;;;;;;26.63;11.00;;;;;;;;;;6126981;29;20258;-87
2022/04/11 05:16:25;;;;;;;17.23;7.68;;;;;;;;;;6131406;29;20389;-87
2022/04/11 05:19:25;;;;;;;21.50;11.02;;;;;;;;;;6138965;28;20030;-87
2022/04/11 05:22:26;;;;;;;18.48;8.35;;;;;;;;;;6166211;28;20399;-87
2022/04/11 05:25:26;;;;;;;19.10;9.53;;;;;;;;;;6132616;29;20028;-87
2022/04/11 05:28:26;;;;;;;18.00;9.27;;;;;;;;;;6131933;29;20285;-87
2022/04/11 05:31:27;;;;;;;17.83;10.70;;;;;;;;;;6147963;28;20414;-87
2022/04/11 05:34:27;;;;;;;20.70;9.80;;;;;;;;;;6125341;28;20035;-87
2022/04/11 05:37:27;;;;;;;13.47;9.03;;;;;;;;;;6134233;28;20031;-87
2022/04/11 05:40:27;;;;;;;15.98;8.20;;;;;;;;;;6157622;28;20285;-87
2022/04/11 05:43:27;;;;;;;14.70;10.13;;;;;;;;;;6150745;28;20039;-86
2022/04/11 05:46:28;;;;;;;15.53;9.10;;;;;;;;;;6146861;29;20278;-86
2022/04/11 05:49:28;;;;;;;18.88;9.18;;;;;;;;;;6131101;29;20319;-87
2022/04/11 05:52:28;;;;;;;17.87;9.30;;;;;;;;;;6130798;28;20106;-87
2022/04/11 05:55:29;;;;;;;17.00;8.57;;;;;;;;;;6132697;28;20307;-88
2022/04/11 05:58:29;;;;;;;15.82;6.65;;;;;;;;;;6131495;28;20357;-88
2022/04/11 06:01:32;;;;;;;16.02;7.65;;;;;;;;;;6130548;28;20033;-87
2022/04/11 06:04:33;;;;;;;15.68;7.75;;;;;;;;;;6149756;28;20023;-87
2022/04/11 06:07:34;;;;;;;17.70;7.93;;;;;;;;;;6134763;28;20035;-88
2022/04/11 06:10:36;;;;;;;16.80;7.27;;;;;;;;;;6130669;28;21409;-88
2022/04/11 06:13:37;;;;;;;14.60;7.93;;;;;;;;;;6126460;29;20078;-88
2022/04/11 06:16:37;;;;;;;13.77;7.53;;;;;;;;;;6126542;29;20035;-88
2022/04/11 06:19:37;;;;;;;15.47;8.30;;;;;;;;;;6123691;29;20093;-88
2022/04/11 06:22:38;;;;;;;12.73;7.40;;;;;;;;;;6145664;28;20064;-88
2022/04/11 06:25:39;;;;;;;13.93;7.85;;;;;;;;;;6133304;28;20027;-88
2022/04/11 06:28:41;;;;;;;15.87;8.83;;;;;;;;;;6126894;29;20439;-88
2022/04/11 06:31:41;;;;;;;16.05;8.52;;;;;;;;;;6124174;29;20049;-88
2022/04/11 06:34:41;;;;;;;20.43;10.67;;;;;;;;;;6129009;28;20777;-88
2022/04/11 06:37:42;;;;;;;12.93;7.57;;;;;;;;;;6147930;29;20588;-88
2022/04/11 06:40:42;;;;;;;17.40;7.60;;;;;;;;;;6123486;29;20073;-88
2022/04/11 06:43:42;;;;;;;10.83;6.97;;;;;;;;;;6126493;29;20034;-87
2022/04/11 06:46:42;;;;;;;18.30;8.70;;;;;;;;;;6144522;29;20381;-88
2022/04/11 06:49:43;;;;;;;16.85;9.18;;;;;;;;;;6127921;29;20354;-88
2022/04/11 06:52:43;;;;;;;12.67;7.30;;;;;;;;;;6143795;28;20038;-88
2022/04/11 06:55:47;;;;;;;16.00;6.97;;;;;;;;;;6127691;29;20314;-88
2022/04/11 06:58:47;;;;;;;13.57;6.60;;;;;;;;;;6128574;29;20267;-88
2022/04/11 07:01:47;;;;;;;13.00;6.50;;;;;;;;;;6146204;29;20078;-88
2022/04/11 07:04:47;;;;;;;11.73;6.07;;;;;;;;;;6125876;29;20690;-87
2022/04/11 07:07:49;;;;;;;15.83;6.90;;;;;;;;;;6126636;29;20626;-88
2022/04/11 07:10:49;;;;;;;9.70;5.65;;;;;;;;;;6127559;29;20283;-87
2022/04/11 07:13:49;;;;;;;11.57;6.77;;;;;;;;;;6129493;28;20086;-87
2022/04/11 07:16:51;;;;;;;14.40;6.20;;;;;;;;;;6121237;29;20290;-87
2022/04/11 07:19:51;;;;;;;13.20;5.90;;;;;;;;;;6145799;28;20090;-87
2022/04/11 07:22:52;;;;;;;13.97;6.03;;;;;;;;;;6127319;29;20023;-87
2022/04/11 07:25:52;;;;;;;13.50;6.53;;;;;;;;;;6125456;29;20294;-87
2022/04/11 07:28:52;;;;;;;15.50;6.75;;;;;;;;;;6126542;28;20365;-88
2022/04/11 07:31:52;;;;;;;12.73;6.67;;;;;;;;;;6132744;29;20112;-88
2022/04/11 07:34:53;;;;;;;10.30;5.97;;;;;;;;;;6129592;29;20310;-88
2022/04/11 07:37:53;;;;;;;11.60;5.85;;;;;;;;;;6130731;29;20038;-88
2022/04/11 07:40:53;;;;;;;12.38;6.75;;;;;;;;;;6127017;29;20027;-88
2022/04/11 07:43:54;;;;;;;14.70;5.72;;;;;;;;;;6129453;29;20046;-88
2022/04/11 07:46:54;;;;;;;11.35;6.00;;;;;;;;;;6147007;29;20034;-88
2022/04/11 07:49:55;;;;;;;10.98;5.20;;;;;;;;;;6128733;29;20027;-89
2022/04/11 07:52:55;;;;;;;10.27;4.47;;;;;;;;;;6127740;29;20644;-89
2022/04/11 07:55:55;;;;;;;6.63;4.00;;;;;;;;;;6130514;29;20047;-88
2022/04/11 07:58:56;;;;;;;7.53;3.83;;;;;;;;;;6150586;28;20027;-88
2022/04/11 08:01:56;;;;;;;8.98;3.85;;;;;;;;;;6140176;28;20022;-88
2022/04/11 08:05:00;;;;;;;11.90;4.17;;;;;;;;;;6138756;28;20506;-88
2022/04/11 08:08:00;;;;;;;7.97;4.38;;;;;;;;;;6131116;29;20050;-88
2022/04/11 08:11:00;;;;;;;10.50;4.60;;;;;;;;;;6131184;29;20023;-88
2022/04/11 08:14:00;;;;;;;6.77;4.50;;;;;;;;;;6148979;28;20278;-88
2022/04/11 08:17:03;;;;;;;3.83;2.40;;;;;;;;;;6134397;28;20304;-88
2022/04/11 08:20:03;;;;;;;10.90;3.92;;;;;;;;;;6130831;29;20278;-88
2022/04/11 08:23:04;;;;;;;9.10;4.75;;;;;;;;;;6148787;29;20166;-88
2022/04/11 08:26:04;;;;;;;10.75;4.50;;;;;;;;;;6132597;29;20031;-88
2022/04/11 08:29:04;;;;;;;16.75;5.25;;;;;;;;;;6149343;29;20023;-88
2022/04/11 08:32:05;;;;;;;10.70;5.20;;;;;;;;;;6135034;28;21594;-88
2022/04/11 08:35:06;;;;;;;8.25;3.47;;;;;;;;;;6160460;28;20058;-88
2022/04/11 08:38:06;;;;;;;60.80;23.60;;;;;;;;;;6133375;29;20050;-88
2022/04/11 08:41:08;;;;;;;12.03;5.60;;;;;;;;;;6133000;28;20070;-87
2022/04/11 08:44:09;;;;;;;;;;;;;;;;;;6132146;29;20274;-88
2022/04/11 08:47:09;;;;;;;29.60;12.32;;;;;;;;;;6137210;29;19910;-88
2022/04/11 08:50:10;;;;;;;27.67;10.00;;;;;;;;;;6131630;29;20023;-88
2022/04/11 08:53:10;;;;;;;16.98;7.97;;;;;;;;;;6131089;29;20019;-88
2022/04/11 08:56:11;;;;;;;25.95;11.98;;;;;;;;;;6131129;29;20392;-88
2022/04/11 08:59:11;;;;;;;59.63;26.33;;;;;;;;;;6130028;29;20430;-87
2022/04/11 09:02:11;;;;;;;72.18;28.85;;;;;;;;;;6135305;28;20275;-88
2022/04/11 09:05:17;;;;;;;16.60;7.77;;;;;;;;;;6131592;28;20035;-88
2022/04/11 09:08:35;;;;;;;5.95;3.60;;;;;;;;;;6146760;29;20263;-88
2022/04/11 09:11:36;;;;;;;7.38;4.25;;;;;;;;;;6129821;29;20512;-88
2022/04/11 09:14:38;;;;;;;29.92;12.68;;;;;;;;;;6145862;29;20026;-88
2022/04/11 09:17:42;;;;;;;28.27;9.25;;;;;;;;;;6146962;29;20114;-88
2022/04/11 09:20:43;;;;;;;17.52;7.50;;;;;;;;;;6129507;29;20835;-88
2022/04/11 09:23:43;;;;;;;19.17;7.28;;;;;;;;;;6130066;29;20027;-88
2022/04/11 09:26:43;;;;;;;18.00;5.30;;;;;;;;;;6147283;28;20029;-88
2022/04/11 09:29:44;;;;;;;13.90;6.70;;;;;;;;;;6127161;29;20026;-88
2022/04/11 09:33:10;;;;;;;34.83;12.53;;;;;;;;;;6128739;29;20274;-88
2022/04/11 09:36:10;;;;;;;21.63;8.65;;;;;;;;;;6143047;28;20306;-87
2022/04/11 09:39:11;;;;;;;18.83;8.85;;;;;;;;;;6144703;28;20093;-87
2022/04/11 09:42:11;;;;;;;23.23;7.57;;;;;;;;;;6146982;28;20090;-88
2022/04/11 09:45:16;;;;;;;17.15;6.95;;;;;;;;;;6114011;29;20049;-87
2022/04/11 09:48:24;;;;;;;11.90;4.85;;;;;;;;;;6116118;28;20031;-87
2022/04/11 09:51:25;;;;;;;10.55;4.20;;;;;;;;;;6130106;29;20031;-88
2022/04/11 09:54:25;;;;;;;9.90;4.05;;;;;;;;;;6129590;28;20042;-88
2022/04/11 09:57:28;;;;;;;6.43;3.20;;;;;;;;;;6131136;29;20034;-88
2022/04/11 10:00:29;;;;;;;52.20;18.08;;;;;;;;;;6130075;29;20097;-88
2022/04/11 10:03:30;;;;;;;19.88;7.22;;;;;;;;;;6129094;29;20379;-89
2022/04/11 10:06:30;;;;;;;7.40;3.17;;;;;;;;;;6131402;29;20023;-88
2022/04/11 10:09:31;;;;;;;13.20;6.07;;;;;;;;;;6131233;28;20475;-88
2022/04/11 10:12:32;;;;;;;11.43;4.20;;;;;;;;;;6155178;28;20023;-87
2022/04/11 10:15:32;;;;;;;18.95;8.60;;;;;;;;;;6146475;29;20094;-88
2022/04/11 10:18:34;;;;;;;61.00;22.33;;;;;;;;;;6147349;29;20099;-88
2022/04/11 10:21:36;;;;;;;21.70;9.10;;;;;;;;;;6131085;29;20407;-88
2022/04/11 10:24:44;;;;;;;22.88;9.15;;;;;;;;;;6132755;28;20356;-88
2022/04/11 10:27:45;;;;;;;12.35;5.03;;;;;;;;;;6160298;28;20106;-88
2022/04/11 10:31:01;;;;;;;17.20;4.45;;;;;;;;;;6146324;28;20019;-89
2022/04/11 10:34:01;;;;;;;9.05;4.18;;;;;;;;;;6165019;28;20098;-88
2022/04/11 10:37:02;;;;;;;18.67;12.02;;;;;;;;;;6131889;28;20623;-88
2022/04/11 10:40:19;;;;;;;17.25;7.53;;;;;;;;;;6130680;29;20078;-88
2022/04/11 10:43:20;;;;;;;11.43;5.03;;;;;;;;;;6146192;29;20106;-88
2022/04/11 10:46:20;;;;;;;10.23;4.18;;;;;;;;;;6126757;29;20070;-88
2022/04/11 10:49:21;;;;;;;10.53;4.57;;;;;;;;;;6131352;28;20387;-88
2022/04/11 10:52:31;;;;;;;12.00;4.17;;;;;;;;;;6133447;28;20801;-89
2022/04/11 10:55:32;;;;;;;8.93;3.30;;;;;;;;;;6135047;28;20302;-88
2022/04/11 10:58:46;;;;;;;10.10;3.97;;;;;;;;;;6122339;28;20023;-88
2022/04/11 11:01:46;;;;;;;11.02;5.75;;;;;;;;;;6133367;28;20073;-88
2022/04/11 11:04:48;;;;;;;10.82;4.50;;;;;;;;;;6154790;28;20019;-88
2022/04/11 11:07:48;;;;;;;5.03;2.53;;;;;;;;;;6123269;29;20471;-88
2022/04/11 11:11:08;;;;;;;5.20;2.37;;;;;;;;;;6130101;28;20022;-87
2022/04/11 11:14:28;;;;;;;5.90;2.67;;;;;;;;;;6159104;28;20622;-89
2022/04/11 11:17:53;;;;;;;5.35;2.30;;;;;;;;;;6130136;29;20664;-88
2022/04/11 11:20:54;;;;;;;4.88;3.08;;;;;;;;;;6132756;28;20019;-88
2022/04/11 11:23:58;;;;;;;9.10;5.43;;;;;;;;;;6130506;29;20039;-88
2022/04/11 11:27:00;;;;;;;4.55;2.65;;;;;;;;;;6124880;29;20023;-89
2022/04/11 11:30:00;;;;;;;;;;;;;;;;;;6126215;29;20055;-88
2022/04/11 11:33:01;;;;;;;4.25;1.88;;;;;;;;;;6140627;29;19910;-89
2022/04/11 11:36:02;;;;;;;4.25;1.73;;;;;;;;;;6127124;29;20039;-88
2022/04/11 11:39:22;;;;;;;6.07;3.50;;;;;;;;;;6127229;29;20016;-89
2022/04/11 11:42:22;;;;;;;3.90;1.90;;;;;;;;;;6139930;29;20361;-89
2022/04/11 11:45:26;;;;;;;6.13;3.07;;;;;;;;;;6126778;29;20031;-88
2022/04/11 11:48:28;;;;;;;6.68;3.13;;;;;;;;;;6140331;29;20266;-89
2022/04/11 11:51:29;;;;;;;9.47;3.50;;;;;;;;;;6128591;29;20027;-88
2022/04/11 11:54:36;;;;;;;7.30;4.45;;;;;;;;;;6128109;28;20171;-88
2022/04/11 11:57:39;;;;;;;11.80;4.18;;;;;;;;;;6144851;29;20094;-88
2022/04/11 12:00:44;;;;;;;4.18;1.88;;;;;;;;;;6127852;29;20015;-89
2022/04/11 12:07:04;;;;;;;4.07;2.25;;;;;;;;;;6146000;29;20290;-89
2022/04/11 12:10:07;;;;;;;6.87;2.70;;;;;;;;;;6145353;29;20027;-89
2022/04/11 12:13:07;;;;;;;5.10;2.45;;;;;;;;;;6129877;29;20015;-89
2022/04/11 12:16:09;;;;;;;2.80;1.83;;;;;;;;;;6130975;29;20035;-89
2022/04/11 12:19:09;;;;;;;5.88;3.47;;;;;;;;;;6138945;29;20100;-89
2022/04/11 12:22:11;;;;;;;3.20;2.33;;;;;;;;;;6133216;29;20039;-89
2022/04/11 12:25:28;;;;;;;1.42;1.20;;;;;;;;;;6133333;29;20537;-89
2022/04/11 12:28:28;;;;;;;3.75;1.73;;;;;;;;;;6148344;29;20039;-89
2022/04/11 12:31:28;;;;;;;4.30;1.80;;;;;;;;;;6134301;29;20407;-89
2022/04/11 12:34:37;;;;;;;4.45;1.85;;;;;;;;;;6132932;28;20398;-89
2022/04/11 12:37:50;;;;;;;10.35;4.20;;;;;;;;;;6151079;29;20066;-89
2022/04/11 12:40:50;;;;;;;7.82;3.05;;;;;;;;;;6132592;29;20058;-89
2022/04/11 12:44:04;;;;;;;6.43;2.03;;;;;;;;;;6132426;29;20054;-89
2022/04/11 12:47:05;;;;;;;1.85;1.35;;;;;;;;;;6132276;29;20078;-89
2022/04/11 12:50:06;;;;;;;3.33;1.85;;;;;;;;;;6131874;29;20023;-89
2022/04/11 12:53:06;;;;;;;3.15;1.77;;;;;;;;;;6149433;29;20019;-89
2022/04/11 12:56:10;;;;;;;3.70;1.10;;;;;;;;;;6140717;28;20118;-89
2022/04/11 12:59:11;;;;;;;7.72;3.15;;;;;;;;;;6145015;28;20035;-89
2022/04/11 13:02:15;;;;;;;18.10;9.45;;;;;;;;;;6143707;28;20061;-89
2022/04/11 13:05:16;;;;;;;14.90;9.95;;;;;;;;;;6141225;28;20023;-89
2022/04/11 13:08:16;;;;;;;14.93;9.02;;;;;;;;;;6174842;28;20031;-89
2022/04/11 13:11:16;;;;;;;4.40;1.80;;;;;;;;;;6133997;29;20106;-88
2022/04/11 13:14:17;;;;;;;6.17;2.67;;;;;;;;;;6133612;29;20075;-89
2022/04/11 13:20:36;;;;;;;10.18;5.97;;;;;;;;;;6150619;28;20134;-88
2022/04/11 13:23:36;;;;;;;9.37;3.93;;;;;;;;;;6131718;29;20457;-89
2022/04/11 13:26:36;;;;;;;7.57;1.67;;;;;;;;;;6131469;28;20115;-89
2022/04/11 13:29:37;;;;;;;4.13;2.20;;;;;;;;;;6148216;29;20410;-89
2022/04/11 13:32:37;;;;;;;5.67;2.53;;;;;;;;;;6130622;28;20387;-89
2022/04/11 13:35:37;;;;;;;5.40;3.13;;;;;;;;;;6131777;28;20051;-88
2022/04/11 13:38:37;;;;;;;8.33;2.70;;;;;;;;;;6132343;29;20027;-88
2022/04/11 13:41:38;;;;;;;6.93;2.63;;;;;;;;;;6134225;29;20688;-89
2022/04/11 13:44:38;;;;;;;4.27;1.70;;;;;;;;;;6133446;29;20031;-89
2022/04/11 13:47:39;;;;;;;11.27;6.40;;;;;;;;;;6141772;29;20051;-89
2022/04/11 13:50:40;;;;;;;4.33;2.23;;;;;;;;;;6159480;28;20390;-89
2022/04/11 13:53:40;;;;;;;7.63;2.93;;;;;;;;;;6169288;28;20057;-89
2022/04/11 13:56:40;;;;;;;7.27;3.77;;;;;;;;;;6133963;28;20015;-90
2022/04/11 13:59:41;;;;;;;7.27;3.93;;;;;;;;;;6133431;29;20019;-89
2022/04/11 14:02:41;;;;;;;5.40;3.03;;;;;;;;;;6123807;28;20031;-89
2022/04/11 14:05:42;;;;;;;7.63;3.20;;;;;;;;;;6137313;29;20035;-90
2022/04/11 14:08:42;;;;;;;3.67;2.17;;;;;;;;;;6124351;29;20375;-90
2022/04/11 14:11:44;;;;;;;2.83;1.80;;;;;;;;;;6143852;29;20473;-90
2022/04/11 14:14:45;;;;;;;3.28;2.38;;;;;;;;;;6131700;29;20023;-90
2022/04/11 14:17:45;;;;;;;4.83;1.97;;;;;;;;;;6133862;29;20023;-89
2022/04/11 14:20:45;;;;;;;5.50;2.10;;;;;;;;;;6150260;29;20020;-89
2022/04/11 14:23:46;;;;;;;5.22;1.80;;;;;;;;;;6134256;29;20019;-89
2022/04/11 14:26:47;;;;;;;3.25;1.67;;;;;;;;;;6133976;29;20383;-89
2022/04/11 14:29:48;;;;;;;3.30;2.13;;;;;;;;;;6150368;29;20032;-90
2022/04/11 14:32:48;;;;;;;1.50;1.40;;;;;;;;;;6128320;29;20647;-90
2022/04/11 14:35:48;;;;;;;37.70;22.03;;;;;;;;;;6148329;28;20039;-90
2022/04/11 14:38:49;;;;;;;35.10;21.37;;;;;;;;;;6147906;28;20098;-90
2022/04/11 14:41:49;;;;;;;11.43;6.17;;;;;;;;;;6132379;29;20020;-90
2022/04/11 14:44:49;;;;;;;5.80;3.17;;;;;;;;;;6131077;29;20024;-90
2022/04/11 14:47:50;;;;;;;14.93;8.33;;;;;;;;;;6149545;29;20070;-89
2022/04/11 14:50:50;;;;;;;8.50;4.70;;;;;;;;;;6149492;29;20041;-89
2022/04/11 14:53:50;;;;;;;3.17;1.80;;;;;;;;;;6131195;29;20030;-89
2022/04/11 14:56:50;;;;;;;12.27;6.13;;;;;;;;;;6131055;29;20019;-89
2022/04/11 14:59:51;;;;;;;15.90;8.70;;;;;;;;;;6132127;29;20126;-90
2022/04/11 15:02:51;;;;;;;24.92;14.43;;;;;;;;;;6149100;29;20038;-90
2022/04/11 15:05:51;;;;;;;14.27;7.37;;;;;;;;;;6116242;29;20054;-90
2022/04/11 15:08:51;;;;;;;20.08;11.32;;;;;;;;;;6130441;29;20027;-89
2022/04/11 15:11:52;;;;;;;25.17;14.40;;;;;;;;;;6113573;29;20034;-89
2022/04/11 15:14:52;;;;;;;5.55;2.75;;;;;;;;;;6116446;29;20023;-89
2022/04/11 15:17:54;;;;;;;12.48;5.10;;;;;;;;;;6129922;29;20031;-89
2022/04/11 15:20:54;;;;;;;23.88;12.75;;;;;;;;;;6129693;29;20526;-89
2022/04/11 15:23:55;;;;;;;14.93;7.60;;;;;;;;;;6127388;29;20015;-89
2022/04/11 15:26:55;;;;;;;21.58;10.32;;;;;;;;;;6128886;29;20019;-89
2022/04/11 15:29:58;;;;;;;25.20;13.27;;;;;;;;;;6129347;29;20015;-89
2022/04/11 15:32:58;;;;;;;20.02;10.85;;;;;;;;;;6129051;29;20267;-88
2022/04/11 15:35:58;;;;;;;24.95;10.23;;;;;;;;;;6146137;28;20102;-88
2022/04/11 15:39:00;;;;;;;21.30;10.20;;;;;;;;;;6128605;29;20027;-88
2022/04/11 15:42:01;;;;;;;16.90;7.32;;;;;;;;;;6128982;29;20028;-88
2022/04/11 15:45:02;;;;;;;12.98;6.03;;;;;;;;;;6128537;29;20107;-88
2022/04/11 15:48:02;;;;;;;19.53;7.47;;;;;;;;;;6128982;29;20332;-89
2022/04/11 15:51:02;;;;;;;22.08;9.05;;;;;;;;;;6148350;28;20651;-89
2022/04/11 15:54:06;;;;;;;69.47;34.00;;;;;;;;;;6135642;29;20019;-88
2022/04/11 15:57:06;;;;;;;15.73;7.32;;;;;;;;;;6146610;29;20018;-89
2022/04/11 16:00:07;;;;;;;19.10;9.33;;;;;;;;;;6133788;29;20015;-89
2022/04/11 16:03:09;;;;;;;20.48;10.25;;;;;;;;;;6133938;29;20278;-88
2022/04/11 16:06:09;;;;;;;18.15;9.43;;;;;;;;;;6134680;29;20110;-89
2022/04/11 16:09:10;;;;;;;19.83;10.10;;;;;;;;;;6133512;29;20027;-88
2022/04/11 16:12:11;;;;;;;18.92;12.30;;;;;;;;;;6152082;29;20030;-89
2022/04/11 16:15:11;;;;;;;8.95;5.05;;;;;;;;;;6135306;29;20043;-89
2022/04/11 16:18:12;;;;;;;10.87;5.03;;;;;;;;;;6135835;29;20023;-89
2022/04/11 16:21:12;;;;;;;14.15;5.70;;;;;;;;;;6137713;29;20828;-89
2022/04/11 16:24:13;;;;;;;14.30;6.78;;;;;;;;;;6134340;28;20062;-89
2022/04/11 16:27:13;;;;;;;16.52;7.30;;;;;;;;;;6134289;29;20367;-89
2022/04/11 16:30:13;;;;;;;36.47;18.50;;;;;;;;;;6135466;29;20029;-89
2022/04/11 16:33:13;;;;;;;11.43;6.37;;;;;;;;;;6127736;29;20358;-89
2022/04/11 16:36:14;;;;;;;20.50;8.37;;;;;;;;;;6149543;28;20745;-89
2022/04/11 16:39:14;;;;;;;30.65;14.45;;;;;;;;;;6133474;29;20752;-89
2022/04/11 16:42:14;;;;;;;25.48;10.45;;;;;;;;;;6131691;28;20031;-89
2022/04/11 16:45:14;;;;;;;55.43;24.97;;;;;;;;;;6131946;28;20049;-89
2022/04/11 16:48:15;;;;;;;94.65;45.70;;;;;;;;;;6127842;29;20676;-88
2022/04/11 16:51:15;;;;;;;21.07;11.97;;;;;;;;;;6126518;29;20071;-89
2022/04/11 16:54:15;;;;;;;39.47;22.23;;;;;;;;;;6129088;29;20310;-89
2022/04/11 16:57:15;;;;;;;100.43;40.67;;;;;;;;;;6134126;29;20267;-89
2022/04/11 17:00:16;;;;;;;24.57;8.73;;;;;;;;;;6136949;29;20366;-89
2022/04/11 17:03:16;;;;;;;12.45;6.15;;;;;;;;;;6139656;29;20282;-89
2022/04/11 17:06:16;;;;;;;9.07;4.22;;;;;;;;;;6128993;29;20024;-89
2022/04/11 17:09:16;;;;;;;12.33;5.00;;;;;;;;;;6119338;29;20039;-88
2022/04/11 17:12:17;;;;;;;14.73;7.70;;;;;;;;;;6134209;29;20270;-88
2022/04/11 17:18:36;;;;;;;82.53;36.45;;;;;;;;;;6150502;29;20262;-88
2022/04/11 17:21:36;;;;;;;67.95;27.27;;;;;;;;;;6152351;29;20018;-87
2022/04/11 17:24:37;;;;;;;62.22;28.63;;;;;;;;;;6173833;28;20023;-87
2022/04/11 17:27:37;;;;;;;75.18;32.72;;;;;;;;;;6143621;29;20038;-87
2022/04/11 17:30:37;;;;;;;71.88;30.65;;;;;;;;;;6155219;29;20050;-87
2022/04/11 17:33:37;;;;;;;88.93;40.53;;;;;;;;;;6148852;29;20467;-88
2022/04/11 17:36:38;;;;;;;67.10;33.58;;;;;;;;;;6134861;29;20138;-88
2022/04/11 17:39:39;;;;;;;58.53;26.77;;;;;;;;;;6135053;29;20101;-88
2022/04/11 17:42:39;;;;;;;82.28;35.47;;;;;;;;;;6151686;29;20089;-88
2022/04/11 17:45:39;;;;;;;83.40;37.97;;;;;;;;;;6139279;29;20142;-88
2022/04/11 17:48:39;;;;;;;89.68;38.63;;;;;;;;;;6136096;29;20355;-88
2022/04/11 17:51:40;;;;;;;142.73;57.23;;;;;;;;;;6136634;28;20358;-89
2022/04/11 17:54:40;;;;;;;129.63;47.92;;;;;;;;;;6133835;29;20283;-88
2022/04/11 17:57:41;;;;;;;363.42;133.60;;;;;;;;;;6132500;29;20106;-88